sensor_id;sensor_type;location;lat;lon;timestamp;P1;durP1;ratioP1;P2;durP2;ratioP2
17177;SDS011;8704;52.006;4.374;2023-11-19T00:01:18;51.38;;;25.17;;
17177;SDS011;8704;52.006;4.374;2023-11-19T00:03:46;58.22;;;26.38;;
17177;SDS011;8704;52.006;4.374;2023-11-19T00:06:16;53.67;;;27.65;;
17177;SDS011;8704;52.006;4.374;2023-11-19T00:08:45;55.50;;;26.50;;
17177;SDS011;8704;52.006;4.374;2023-11-19T00:11:14;49.45;;;27.90;;
17177;SDS011;8704;52.006;4.374;2023-11-19T00:13:42;52.55;;;26.13;;
17177;SDS011;8704;52.006;4.374;2023-11-19T00:16:10;56.47;;;26.65;;
17177;SDS011;8704;52.006;4.374;2023-11-19T00:18:39;53.00;;;27.75;;
17177;SDS011;8704;52.006;4.374;2023-11-19T00:21:07;54.78;;;23.98;;
17177;SDS011;8704;52.006;4.374;2023-11-19T00:23:36;60.42;;;22.75;;
17177;SDS011;8704;52.006;4.374;2023-11-19T00:26:05;57.45;;;21.35;;
17177;SDS011;8704;52.006;4.374;2023-11-19T00:28:34;53.95;;;22.58;;
17177;SDS011;8704;52.006;4.374;2023-11-19T00:31:05;48.42;;;22.08;;
17177;SDS011;8704;52.006;4.374;2023-11-19T00:33:33;46.42;;;22.65;;
17177;SDS011;8704;52.006;4.374;2023-11-19T00:36:15;54.75;;;21.92;;
17177;SDS011;8704;52.006;4.374;2023-11-19T00:38:43;51.70;;;21.17;;
17177;SDS011;8704;52.006;4.374;2023-11-19T00:41:12;53.75;;;21.40;;
17177;SDS011;8704;52.006;4.374;2023-11-19T00:43:43;65.03;;;23.45;;
17177;SDS011;8704;52.006;4.374;2023-11-19T00:46:12;58.50;;;24.20;;
17177;SDS011;8704;52.006;4.374;2023-11-19T00:48:41;57.08;;;23.80;;
17177;SDS011;8704;52.006;4.374;2023-11-19T00:51:11;61.88;;;25.58;;
17177;SDS011;8704;52.006;4.374;2023-11-19T00:53:39;58.42;;;23.90;;
17177;SDS011;8704;52.006;4.374;2023-11-19T00:56:07;49.00;;;23.25;;
17177;SDS011;8704;52.006;4.374;2023-11-19T00:58:38;47.10;;;21.37;;
17177;SDS011;8704;52.006;4.374;2023-11-19T01:01:08;56.70;;;20.25;;
17177;SDS011;8704;52.006;4.374;2023-11-19T01:03:36;57.97;;;21.60;;
17177;SDS011;8704;52.006;4.374;2023-11-19T01:06:05;59.55;;;21.95;;
17177;SDS011;8704;52.006;4.374;2023-11-19T01:08:34;47.90;;;18.45;;
17177;SDS011;8704;52.006;4.374;2023-11-19T01:11:03;47.53;;;18.55;;
17177;SDS011;8704;52.006;4.374;2023-11-19T01:13:31;54.25;;;21.05;;
17177;SDS011;8704;52.006;4.374;2023-11-19T01:16:00;52.75;;;19.65;;
17177;SDS011;8704;52.006;4.374;2023-11-19T01:18:30;60.55;;;19.95;;
17177;SDS011;8704;52.006;4.374;2023-11-19T01:20:58;48.33;;;18.13;;
17177;SDS011;8704;52.006;4.374;2023-11-19T01:23:26;52.72;;;18.75;;
17177;SDS011;8704;52.006;4.374;2023-11-19T01:25:55;54.50;;;18.95;;
17177;SDS011;8704;52.006;4.374;2023-11-19T01:28:23;50.08;;;18.52;;
17177;SDS011;8704;52.006;4.374;2023-11-19T01:30:51;62.13;;;19.17;;
17177;SDS011;8704;52.006;4.374;2023-11-19T01:33:19;54.15;;;18.17;;
17177;SDS011;8704;52.006;4.374;2023-11-19T01:35:49;54.95;;;17.27;;
17177;SDS011;8704;52.006;4.374;2023-11-19T01:38:17;50.00;;;18.25;;
17177;SDS011;8704;52.006;4.374;2023-11-19T01:40:45;54.05;;;17.98;;
17177;SDS011;8704;52.006;4.374;2023-11-19T01:46:00;52.10;;;17.60;;
17177;SDS011;8704;52.006;4.374;2023-11-19T01:48:29;45.78;;;18.05;;
17177;SDS011;8704;52.006;4.374;2023-11-19T01:51:00;47.70;;;18.67;;
17177;SDS011;8704;52.006;4.374;2023-11-19T01:53:29;56.70;;;19.98;;
17177;SDS011;8704;52.006;4.374;2023-11-19T01:55:58;61.35;;;18.80;;
17177;SDS011;8704;52.006;4.374;2023-11-19T01:58:26;52.60;;;17.77;;
17177;SDS011;8704;52.006;4.374;2023-11-19T02:00:56;47.90;;;19.35;;
17177;SDS011;8704;52.006;4.374;2023-11-19T02:03:25;52.50;;;17.80;;
17177;SDS011;8704;52.006;4.374;2023-11-19T02:05:56;51.38;;;18.98;;
17177;SDS011;8704;52.006;4.374;2023-11-19T02:08:25;53.58;;;19.33;;
17177;SDS011;8704;52.006;4.374;2023-11-19T02:10:53;55.80;;;18.88;;
17177;SDS011;8704;52.006;4.374;2023-11-19T02:13:23;63.47;;;19.70;;
17177;SDS011;8704;52.006;4.374;2023-11-19T02:15:52;61.75;;;19.98;;
17177;SDS011;8704;52.006;4.374;2023-11-19T02:18:21;61.65;;;20.30;;
17177;SDS011;8704;52.006;4.374;2023-11-19T02:20:51;57.10;;;19.75;;
17177;SDS011;8704;52.006;4.374;2023-11-19T02:23:20;53.65;;;17.83;;
17177;SDS011;8704;52.006;4.374;2023-11-19T02:25:54;57.95;;;18.80;;
17177;SDS011;8704;52.006;4.374;2023-11-19T02:28:33;52.67;;;19.02;;
17177;SDS011;8704;52.006;4.374;2023-11-19T02:31:03;60.80;;;20.70;;
17177;SDS011;8704;52.006;4.374;2023-11-19T02:33:36;63.40;;;20.83;;
17177;SDS011;8704;52.006;4.374;2023-11-19T02:36:04;56.88;;;19.60;;
17177;SDS011;8704;52.006;4.374;2023-11-19T02:38:33;61.65;;;19.85;;
17177;SDS011;8704;52.006;4.374;2023-11-19T02:41:03;54.67;;;19.30;;
17177;SDS011;8704;52.006;4.374;2023-11-19T02:43:34;63.83;;;20.23;;
17177;SDS011;8704;52.006;4.374;2023-11-19T02:46:03;63.72;;;18.65;;
17177;SDS011;8704;52.006;4.374;2023-11-19T02:48:36;60.08;;;20.00;;
17177;SDS011;8704;52.006;4.374;2023-11-19T02:51:04;52.95;;;17.55;;
17177;SDS011;8704;52.006;4.374;2023-11-19T02:53:36;55.35;;;18.80;;
17177;SDS011;8704;52.006;4.374;2023-11-19T02:56:07;51.78;;;19.30;;
17177;SDS011;8704;52.006;4.374;2023-11-19T02:58:47;65.95;;;20.13;;
17177;SDS011;8704;52.006;4.374;2023-11-19T03:01:21;64.80;;;20.27;;
17177;SDS011;8704;52.006;4.374;2023-11-19T03:03:57;59.17;;;19.73;;
17177;SDS011;8704;52.006;4.374;2023-11-19T03:06:25;63.83;;;20.90;;
17177;SDS011;8704;52.006;4.374;2023-11-19T03:08:54;63.67;;;20.02;;
17177;SDS011;8704;52.006;4.374;2023-11-19T03:11:22;72.13;;;20.48;;
17177;SDS011;8704;52.006;4.374;2023-11-19T03:13:52;57.60;;;18.35;;
17177;SDS011;8704;52.006;4.374;2023-11-19T03:16:20;58.83;;;19.42;;
17177;SDS011;8704;52.006;4.374;2023-11-19T03:18:48;55.90;;;20.20;;
17177;SDS011;8704;52.006;4.374;2023-11-19T03:21:17;61.20;;;19.08;;
17177;SDS011;8704;52.006;4.374;2023-11-19T03:23:45;60.85;;;19.98;;
17177;SDS011;8704;52.006;4.374;2023-11-19T03:26:12;65.70;;;19.90;;
17177;SDS011;8704;52.006;4.374;2023-11-19T03:28:40;59.92;;;20.45;;
17177;SDS011;8704;52.006;4.374;2023-11-19T03:31:09;66.78;;;19.52;;
17177;SDS011;8704;52.006;4.374;2023-11-19T03:33:37;63.40;;;19.65;;
17177;SDS011;8704;52.006;4.374;2023-11-19T03:36:06;67.28;;;20.40;;
17177;SDS011;8704;52.006;4.374;2023-11-19T03:38:37;65.35;;;19.95;;
17177;SDS011;8704;52.006;4.374;2023-11-19T03:41:09;62.53;;;20.17;;
17177;SDS011;8704;52.006;4.374;2023-11-19T03:43:38;60.15;;;20.10;;
17177;SDS011;8704;52.006;4.374;2023-11-19T03:46:16;63.60;;;20.85;;
17177;SDS011;8704;52.006;4.374;2023-11-19T03:48:46;66.50;;;20.23;;
17177;SDS011;8704;52.006;4.374;2023-11-19T03:51:14;67.05;;;20.13;;
17177;SDS011;8704;52.006;4.374;2023-11-19T03:53:44;73.03;;;21.48;;
17177;SDS011;8704;52.006;4.374;2023-11-19T03:56:12;62.97;;;20.40;;
17177;SDS011;8704;52.006;4.374;2023-11-19T03:58:40;65.13;;;21.77;;
17177;SDS011;8704;52.006;4.374;2023-11-19T04:01:10;74.63;;;20.65;;
17177;SDS011;8704;52.006;4.374;2023-11-19T04:03:41;69.65;;;20.95;;
17177;SDS011;8704;52.006;4.374;2023-11-19T04:06:12;73.03;;;21.80;;
17177;SDS011;8704;52.006;4.374;2023-11-19T04:08:40;63.33;;;19.63;;
17177;SDS011;8704;52.006;4.374;2023-11-19T04:11:08;54.25;;;18.38;;
17177;SDS011;8704;52.006;4.374;2023-11-19T04:13:36;61.75;;;16.52;;
17177;SDS011;8704;52.006;4.374;2023-11-19T04:16:05;57.42;;;16.33;;
17177;SDS011;8704;52.006;4.374;2023-11-19T04:18:34;52.60;;;16.02;;
17177;SDS011;8704;52.006;4.374;2023-11-19T04:21:05;53.10;;;15.48;;
17177;SDS011;8704;52.006;4.374;2023-11-19T04:23:34;56.40;;;17.42;;
17177;SDS011;8704;52.006;4.374;2023-11-19T04:26:02;60.20;;;16.67;;
17177;SDS011;8704;52.006;4.374;2023-11-19T04:28:34;60.88;;;16.38;;
17177;SDS011;8704;52.006;4.374;2023-11-19T04:31:02;44.15;;;16.52;;
17177;SDS011;8704;52.006;4.374;2023-11-19T04:33:31;55.53;;;15.68;;
17177;SDS011;8704;52.006;4.374;2023-11-19T04:35:59;50.00;;;15.20;;
17177;SDS011;8704;52.006;4.374;2023-11-19T04:38:28;48.97;;;14.93;;
17177;SDS011;8704;52.006;4.374;2023-11-19T04:40:57;52.17;;;14.63;;
17177;SDS011;8704;52.006;4.374;2023-11-19T04:43:25;55.63;;;15.68;;
17177;SDS011;8704;52.006;4.374;2023-11-19T04:45:53;62.03;;;14.95;;
17177;SDS011;8704;52.006;4.374;2023-11-19T04:48:21;56.75;;;15.18;;
17177;SDS011;8704;52.006;4.374;2023-11-19T04:50:49;50.00;;;15.55;;
17177;SDS011;8704;52.006;4.374;2023-11-19T04:53:19;53.17;;;15.43;;
17177;SDS011;8704;52.006;4.374;2023-11-19T04:55:48;53.63;;;16.15;;
17177;SDS011;8704;52.006;4.374;2023-11-19T04:58:16;50.78;;;14.85;;
17177;SDS011;8704;52.006;4.374;2023-11-19T05:00:45;48.65;;;14.52;;
17177;SDS011;8704;52.006;4.374;2023-11-19T05:03:13;47.05;;;13.40;;
17177;SDS011;8704;52.006;4.374;2023-11-19T05:05:41;54.17;;;14.55;;
17177;SDS011;8704;52.006;4.374;2023-11-19T05:08:09;51.83;;;14.85;;
17177;SDS011;8704;52.006;4.374;2023-11-19T05:10:38;53.70;;;15.88;;
17177;SDS011;8704;52.006;4.374;2023-11-19T05:13:08;53.22;;;15.63;;
17177;SDS011;8704;52.006;4.374;2023-11-19T05:15:36;64.55;;;16.90;;
17177;SDS011;8704;52.006;4.374;2023-11-19T05:18:04;53.47;;;15.35;;
17177;SDS011;8704;52.006;4.374;2023-11-19T05:20:32;50.63;;;16.25;;
17177;SDS011;8704;52.006;4.374;2023-11-19T05:23:01;54.85;;;15.73;;
17177;SDS011;8704;52.006;4.374;2023-11-19T05:25:29;59.08;;;16.42;;
17177;SDS011;8704;52.006;4.374;2023-11-19T05:27:57;55.85;;;15.63;;
17177;SDS011;8704;52.006;4.374;2023-11-19T05:30:26;48.40;;;14.43;;
17177;SDS011;8704;52.006;4.374;2023-11-19T05:32:54;53.60;;;14.98;;
17177;SDS011;8704;52.006;4.374;2023-11-19T05:35:22;57.70;;;15.63;;
17177;SDS011;8704;52.006;4.374;2023-11-19T05:37:50;50.55;;;15.50;;
17177;SDS011;8704;52.006;4.374;2023-11-19T05:40:18;59.67;;;16.00;;
17177;SDS011;8704;52.006;4.374;2023-11-19T05:42:47;57.63;;;15.60;;
17177;SDS011;8704;52.006;4.374;2023-11-19T05:45:15;52.20;;;16.02;;
17177;SDS011;8704;52.006;4.374;2023-11-19T05:47:44;49.80;;;14.88;;
17177;SDS011;8704;52.006;4.374;2023-11-19T05:50:12;46.17;;;14.43;;
17177;SDS011;8704;52.006;4.374;2023-11-19T05:52:41;52.33;;;13.82;;
17177;SDS011;8704;52.006;4.374;2023-11-19T05:55:09;55.00;;;15.15;;
17177;SDS011;8704;52.006;4.374;2023-11-19T05:57:38;44.45;;;14.23;;
17177;SDS011;8704;52.006;4.374;2023-11-19T06:00:10;50.03;;;15.05;;
17177;SDS011;8704;52.006;4.374;2023-11-19T06:02:39;56.47;;;15.57;;
17177;SDS011;8704;52.006;4.374;2023-11-19T06:05:09;50.65;;;14.98;;
17177;SDS011;8704;52.006;4.374;2023-11-19T06:07:38;52.85;;;14.98;;
17177;SDS011;8704;52.006;4.374;2023-11-19T06:10:07;54.40;;;15.90;;
17177;SDS011;8704;52.006;4.374;2023-11-19T06:12:37;58.83;;;15.18;;
17177;SDS011;8704;52.006;4.374;2023-11-19T06:15:07;52.33;;;14.63;;
17177;SDS011;8704;52.006;4.374;2023-11-19T06:17:36;52.03;;;14.38;;
17177;SDS011;8704;52.006;4.374;2023-11-19T06:20:05;47.03;;;15.00;;
17177;SDS011;8704;52.006;4.374;2023-11-19T06:22:35;57.72;;;14.60;;
17177;SDS011;8704;52.006;4.374;2023-11-19T06:25:04;52.42;;;13.95;;
17177;SDS011;8704;52.006;4.374;2023-11-19T06:27:34;52.53;;;15.40;;
17177;SDS011;8704;52.006;4.374;2023-11-19T06:30:02;58.30;;;16.63;;
17177;SDS011;8704;52.006;4.374;2023-11-19T06:32:32;54.97;;;15.00;;
17177;SDS011;8704;52.006;4.374;2023-11-19T06:35:00;47.72;;;14.95;;
17177;SDS011;8704;52.006;4.374;2023-11-19T06:37:28;57.00;;;15.57;;
17177;SDS011;8704;52.006;4.374;2023-11-19T06:39:58;54.58;;;15.32;;
17177;SDS011;8704;52.006;4.374;2023-11-19T06:42:26;64.28;;;15.38;;
17177;SDS011;8704;52.006;4.374;2023-11-19T06:44:55;54.05;;;17.65;;
17177;SDS011;8704;52.006;4.374;2023-11-19T06:47:25;53.40;;;14.88;;
17177;SDS011;8704;52.006;4.374;2023-11-19T06:49:54;45.53;;;14.63;;
17177;SDS011;8704;52.006;4.374;2023-11-19T06:52:22;54.63;;;15.18;;
17177;SDS011;8704;52.006;4.374;2023-11-19T06:54:51;58.05;;;15.80;;
17177;SDS011;8704;52.006;4.374;2023-11-19T06:57:35;47.13;;;17.27;;
17177;SDS011;8704;52.006;4.374;2023-11-19T07:00:03;47.65;;;15.88;;
17177;SDS011;8704;52.006;4.374;2023-11-19T07:02:32;53.67;;;15.43;;
17177;SDS011;8704;52.006;4.374;2023-11-19T07:05:01;55.38;;;15.77;;
17177;SDS011;8704;52.006;4.374;2023-11-19T07:07:30;69.80;;;17.85;;
17177;SDS011;8704;52.006;4.374;2023-11-19T07:09:59;64.95;;;16.15;;
17177;SDS011;8704;52.006;4.374;2023-11-19T07:12:28;54.95;;;15.65;;
17177;SDS011;8704;52.006;4.374;2023-11-19T07:14:58;54.03;;;15.20;;
17177;SDS011;8704;52.006;4.374;2023-11-19T07:17:26;50.70;;;15.35;;
17177;SDS011;8704;52.006;4.374;2023-11-19T07:19:55;54.30;;;14.25;;
17177;SDS011;8704;52.006;4.374;2023-11-19T07:22:25;45.97;;;14.57;;
17177;SDS011;8704;52.006;4.374;2023-11-19T07:24:56;55.65;;;15.60;;
17177;SDS011;8704;52.006;4.374;2023-11-19T07:27:25;50.55;;;15.32;;
17177;SDS011;8704;52.006;4.374;2023-11-19T07:29:54;57.15;;;14.90;;
17177;SDS011;8704;52.006;4.374;2023-11-19T07:32:24;54.97;;;14.77;;
17177;SDS011;8704;52.006;4.374;2023-11-19T07:34:52;46.72;;;13.90;;
17177;SDS011;8704;52.006;4.374;2023-11-19T07:37:20;47.47;;;13.13;;
17177;SDS011;8704;52.006;4.374;2023-11-19T07:39:48;51.95;;;14.40;;
17177;SDS011;8704;52.006;4.374;2023-11-19T07:42:16;50.97;;;13.80;;
17177;SDS011;8704;52.006;4.374;2023-11-19T07:44:44;60.50;;;13.88;;
17177;SDS011;8704;52.006;4.374;2023-11-19T07:47:13;51.03;;;13.55;;
17177;SDS011;8704;52.006;4.374;2023-11-19T07:49:42;46.97;;;13.20;;
17177;SDS011;8704;52.006;4.374;2023-11-19T07:52:11;44.28;;;12.63;;
17177;SDS011;8704;52.006;4.374;2023-11-19T07:54:42;44.22;;;12.55;;
17177;SDS011;8704;52.006;4.374;2023-11-19T07:57:10;50.03;;;11.75;;
17177;SDS011;8704;52.006;4.374;2023-11-19T07:59:38;42.85;;;11.32;;
17177;SDS011;8704;52.006;4.374;2023-11-19T08:02:06;42.25;;;10.65;;
17177;SDS011;8704;52.006;4.374;2023-11-19T08:04:35;46.17;;;12.20;;
17177;SDS011;8704;52.006;4.374;2023-11-19T08:07:07;53.15;;;13.30;;
17177;SDS011;8704;52.006;4.374;2023-11-19T08:09:36;47.15;;;12.43;;
17177;SDS011;8704;52.006;4.374;2023-11-19T08:12:04;49.03;;;12.90;;
17177;SDS011;8704;52.006;4.374;2023-11-19T08:14:34;48.58;;;14.52;;
17177;SDS011;8704;52.006;4.374;2023-11-19T08:17:03;50.50;;;13.68;;
17177;SDS011;8704;52.006;4.374;2023-11-19T08:19:31;55.20;;;12.90;;
17177;SDS011;8704;52.006;4.374;2023-11-19T08:21:59;46.38;;;13.75;;
17177;SDS011;8704;52.006;4.374;2023-11-19T08:24:29;51.33;;;12.88;;
17177;SDS011;8704;52.006;4.374;2023-11-19T08:26:57;52.85;;;14.20;;
17177;SDS011;8704;52.006;4.374;2023-11-19T08:29:28;47.53;;;13.45;;
17177;SDS011;8704;52.006;4.374;2023-11-19T08:31:56;51.38;;;13.85;;
17177;SDS011;8704;52.006;4.374;2023-11-19T08:34:26;56.67;;;13.82;;
17177;SDS011;8704;52.006;4.374;2023-11-19T08:36:54;52.45;;;13.88;;
17177;SDS011;8704;52.006;4.374;2023-11-19T08:39:22;49.92;;;13.00;;
17177;SDS011;8704;52.006;4.374;2023-11-19T08:41:52;48.72;;;13.15;;
17177;SDS011;8704;52.006;4.374;2023-11-19T08:44:21;46.63;;;13.57;;
17177;SDS011;8704;52.006;4.374;2023-11-19T08:46:49;45.58;;;11.73;;
17177;SDS011;8704;52.006;4.374;2023-11-19T08:49:17;48.05;;;12.20;;
17177;SDS011;8704;52.006;4.374;2023-11-19T08:51:45;41.88;;;10.90;;
17177;SDS011;8704;52.006;4.374;2023-11-19T08:54:13;55.55;;;13.40;;
17177;SDS011;8704;52.006;4.374;2023-11-19T08:56:41;49.20;;;13.25;;
17177;SDS011;8704;52.006;4.374;2023-11-19T08:59:11;52.13;;;12.50;;
17177;SDS011;8704;52.006;4.374;2023-11-19T09:01:41;55.05;;;12.98;;
17177;SDS011;8704;52.006;4.374;2023-11-19T09:04:10;45.53;;;11.70;;
17177;SDS011;8704;52.006;4.374;2023-11-19T09:06:39;46.78;;;12.55;;
17177;SDS011;8704;52.006;4.374;2023-11-19T09:09:07;56.00;;;12.18;;
17177;SDS011;8704;52.006;4.374;2023-11-19T09:11:35;54.65;;;11.50;;
17177;SDS011;8704;52.006;4.374;2023-11-19T09:14:04;45.58;;;11.60;;
17177;SDS011;8704;52.006;4.374;2023-11-19T09:16:33;46.15;;;10.50;;
17177;SDS011;8704;52.006;4.374;2023-11-19T09:19:01;39.53;;;10.13;;
17177;SDS011;8704;52.006;4.374;2023-11-19T09:21:32;48.83;;;11.15;;
17177;SDS011;8704;52.006;4.374;2023-11-19T09:24:03;53.65;;;11.10;;
17177;SDS011;8704;52.006;4.374;2023-11-19T09:26:31;50.13;;;11.77;;
17177;SDS011;8704;52.006;4.374;2023-11-19T09:28:59;54.88;;;12.38;;
17177;SDS011;8704;52.006;4.374;2023-11-19T09:31:27;46.50;;;11.02;;
17177;SDS011;8704;52.006;4.374;2023-11-19T09:33:57;42.47;;;11.70;;
17177;SDS011;8704;52.006;4.374;2023-11-19T09:36:25;50.88;;;11.43;;
17177;SDS011;8704;52.006;4.374;2023-11-19T09:38:53;40.05;;;9.85;;
17177;SDS011;8704;52.006;4.374;2023-11-19T09:41:21;38.25;;;10.07;;
17177;SDS011;8704;52.006;4.374;2023-11-19T09:43:50;37.72;;;9.57;;
17177;SDS011;8704;52.006;4.374;2023-11-19T09:46:18;40.30;;;9.40;;
17177;SDS011;8704;52.006;4.374;2023-11-19T09:48:50;36.33;;;9.45;;
17177;SDS011;8704;52.006;4.374;2023-11-19T09:51:22;42.53;;;9.23;;
17177;SDS011;8704;52.006;4.374;2023-11-19T09:53:51;34.78;;;9.20;;
17177;SDS011;8704;52.006;4.374;2023-11-19T09:56:19;33.40;;;8.77;;
17177;SDS011;8704;52.006;4.374;2023-11-19T09:58:47;35.15;;;8.68;;
17177;SDS011;8704;52.006;4.374;2023-11-19T10:01:15;39.75;;;9.93;;
17177;SDS011;8704;52.006;4.374;2023-11-19T10:03:54;43.08;;;8.55;;
17177;SDS011;8704;52.006;4.374;2023-11-19T10:06:25;37.20;;;8.88;;
17177;SDS011;8704;52.006;4.374;2023-11-19T10:08:54;38.63;;;9.18;;
17177;SDS011;8704;52.006;4.374;2023-11-19T10:11:22;38.25;;;9.57;;
17177;SDS011;8704;52.006;4.374;2023-11-19T10:13:51;35.80;;;9.27;;
17177;SDS011;8704;52.006;4.374;2023-11-19T10:16:20;30.35;;;8.85;;
17177;SDS011;8704;52.006;4.374;2023-11-19T10:18:55;43.17;;;9.85;;
17177;SDS011;8704;52.006;4.374;2023-11-19T10:21:23;35.25;;;9.20;;
17177;SDS011;8704;52.006;4.374;2023-11-19T10:23:54;40.75;;;9.40;;
17177;SDS011;8704;52.006;4.374;2023-11-19T10:26:23;38.70;;;10.07;;
17177;SDS011;8704;52.006;4.374;2023-11-19T10:28:51;33.70;;;9.05;;
17177;SDS011;8704;52.006;4.374;2023-11-19T10:31:20;42.35;;;9.05;;
17177;SDS011;8704;52.006;4.374;2023-11-19T10:33:51;39.17;;;10.13;;
17177;SDS011;8704;52.006;4.374;2023-11-19T10:36:19;35.42;;;8.82;;
17177;SDS011;8704;52.006;4.374;2023-11-19T10:38:54;42.08;;;9.32;;
17177;SDS011;8704;52.006;4.374;2023-11-19T10:41:29;46.03;;;10.35;;
17177;SDS011;8704;52.006;4.374;2023-11-19T10:43:58;44.80;;;8.70;;
17177;SDS011;8704;52.006;4.374;2023-11-19T10:46:36;42.00;;;9.38;;
17177;SDS011;8704;52.006;4.374;2023-11-19T10:49:05;36.75;;;8.55;;
17177;SDS011;8704;52.006;4.374;2023-11-19T10:51:33;36.33;;;9.13;;
17177;SDS011;8704;52.006;4.374;2023-11-19T10:54:04;41.15;;;9.38;;
17177;SDS011;8704;52.006;4.374;2023-11-19T10:56:33;40.10;;;9.20;;
17177;SDS011;8704;52.006;4.374;2023-11-19T10:59:02;36.53;;;9.18;;
17177;SDS011;8704;52.006;4.374;2023-11-19T11:01:48;37.00;;;9.82;;
17177;SDS011;8704;52.006;4.374;2023-11-19T11:04:22;39.08;;;10.10;;
17177;SDS011;8704;52.006;4.374;2023-11-19T11:06:52;46.30;;;11.20;;
17177;SDS011;8704;52.006;4.374;2023-11-19T11:09:23;44.63;;;11.93;;
17177;SDS011;8704;52.006;4.374;2023-11-19T11:11:54;47.40;;;11.63;;
17177;SDS011;8704;52.006;4.374;2023-11-19T11:14:23;49.20;;;10.85;;
17177;SDS011;8704;52.006;4.374;2023-11-19T11:16:53;53.15;;;11.10;;
17177;SDS011;8704;52.006;4.374;2023-11-19T11:19:21;48.55;;;11.45;;
17177;SDS011;8704;52.006;4.374;2023-11-19T11:21:50;44.38;;;10.60;;
17177;SDS011;8704;52.006;4.374;2023-11-19T11:24:32;36.07;;;10.30;;
17177;SDS011;8704;52.006;4.374;2023-11-19T11:30:16;38.70;;;10.60;;
17177;SDS011;8704;52.006;4.374;2023-11-19T11:32:54;41.83;;;10.23;;
17177;SDS011;8704;52.006;4.374;2023-11-19T11:35:35;38.33;;;9.77;;
17177;SDS011;8704;52.006;4.374;2023-11-19T11:38:17;32.40;;;9.05;;
17177;SDS011;8704;52.006;4.374;2023-11-19T11:43:47;30.23;;;8.18;;
17177;SDS011;8704;52.006;4.374;2023-11-19T11:49:25;36.10;;;8.55;;
17177;SDS011;8704;52.006;4.374;2023-11-19T11:52:02;26.90;;;7.45;;
17177;SDS011;8704;52.006;4.374;2023-11-19T11:54:31;30.05;;;8.25;;
17177;SDS011;8704;52.006;4.374;2023-11-19T11:57:03;33.35;;;8.15;;
17177;SDS011;8704;52.006;4.374;2023-11-19T11:59:40;32.85;;;8.07;;
17177;SDS011;8704;52.006;4.374;2023-11-19T12:02:11;32.10;;;8.45;;
17177;SDS011;8704;52.006;4.374;2023-11-19T12:04:40;27.48;;;7.57;;
17177;SDS011;8704;52.006;4.374;2023-11-19T12:07:11;28.13;;;8.65;;
17177;SDS011;8704;52.006;4.374;2023-11-19T12:09:40;24.63;;;7.83;;
17177;SDS011;8704;52.006;4.374;2023-11-19T12:12:14;37.50;;;9.30;;
17177;SDS011;8704;52.006;4.374;2023-11-19T12:15:03;34.90;;;8.77;;
17177;SDS011;8704;52.006;4.374;2023-11-19T12:17:36;29.13;;;7.50;;
17177;SDS011;8704;52.006;4.374;2023-11-19T12:20:16;35.85;;;9.02;;
17177;SDS011;8704;52.006;4.374;2023-11-19T12:23:00;38.05;;;9.55;;
17177;SDS011;8704;52.006;4.374;2023-11-19T12:25:34;38.70;;;9.70;;
17177;SDS011;8704;52.006;4.374;2023-11-19T12:28:03;39.38;;;10.38;;
17177;SDS011;8704;52.006;4.374;2023-11-19T12:30:32;35.85;;;9.50;;
17177;SDS011;8704;52.006;4.374;2023-11-19T12:33:07;36.90;;;10.30;;
17177;SDS011;8704;52.006;4.374;2023-11-19T12:35:38;41.72;;;9.93;;
17177;SDS011;8704;52.006;4.374;2023-11-19T12:38:06;38.70;;;10.30;;
17177;SDS011;8704;52.006;4.374;2023-11-19T12:40:34;38.08;;;10.50;;
17177;SDS011;8704;52.006;4.374;2023-11-19T12:43:04;37.92;;;9.68;;
17177;SDS011;8704;52.006;4.374;2023-11-19T12:45:35;41.88;;;10.68;;
17177;SDS011;8704;52.006;4.374;2023-11-19T12:48:04;43.97;;;10.27;;
17177;SDS011;8704;52.006;4.374;2023-11-19T12:53:19;36.08;;;9.98;;
17177;SDS011;8704;52.006;4.374;2023-11-19T12:55:48;46.38;;;10.88;;
17177;SDS011;8704;52.006;4.374;2023-11-19T12:58:30;41.05;;;10.13;;
17177;SDS011;8704;52.006;4.374;2023-11-19T13:01:01;45.33;;;10.35;;
17177;SDS011;8704;52.006;4.374;2023-11-19T13:03:31;40.92;;;10.20;;
17177;SDS011;8704;52.006;4.374;2023-11-19T13:06:01;40.80;;;10.23;;
17177;SDS011;8704;52.006;4.374;2023-11-19T13:08:35;49.30;;;11.20;;
17177;SDS011;8704;52.006;4.374;2023-11-19T13:11:05;41.38;;;11.10;;
17177;SDS011;8704;52.006;4.374;2023-11-19T13:16:26;45.05;;;11.40;;
17177;SDS011;8704;52.006;4.374;2023-11-19T13:18:55;42.47;;;11.15;;
17177;SDS011;8704;52.006;4.374;2023-11-19T13:21:24;44.08;;;10.63;;
17177;SDS011;8704;52.006;4.374;2023-11-19T13:23:52;40.33;;;11.05;;
17177;SDS011;8704;52.006;4.374;2023-11-19T13:26:21;41.15;;;11.52;;
17177;SDS011;8704;52.006;4.374;2023-11-19T13:28:49;43.10;;;10.50;;
17177;SDS011;8704;52.006;4.374;2023-11-19T13:31:19;36.63;;;9.82;;
17177;SDS011;8704;52.006;4.374;2023-11-19T13:33:47;43.45;;;10.73;;
17177;SDS011;8704;52.006;4.374;2023-11-19T13:36:15;36.83;;;9.75;;
17177;SDS011;8704;52.006;4.374;2023-11-19T13:38:43;37.78;;;10.15;;
17177;SDS011;8704;52.006;4.374;2023-11-19T13:41:12;39.08;;;10.07;;
17177;SDS011;8704;52.006;4.374;2023-11-19T13:43:40;34.15;;;8.27;;
17177;SDS011;8704;52.006;4.374;2023-11-19T13:46:08;37.97;;;9.23;;
17177;SDS011;8704;52.006;4.374;2023-11-19T13:48:38;38.90;;;8.98;;
17177;SDS011;8704;52.006;4.374;2023-11-19T13:51:06;39.15;;;8.95;;
17177;SDS011;8704;52.006;4.374;2023-11-19T13:53:36;34.38;;;9.52;;
17177;SDS011;8704;52.006;4.374;2023-11-19T13:56:08;43.80;;;9.60;;
17177;SDS011;8704;52.006;4.374;2023-11-19T13:58:36;34.78;;;9.52;;
17177;SDS011;8704;52.006;4.374;2023-11-19T14:01:04;35.20;;;9.25;;
17177;SDS011;8704;52.006;4.374;2023-11-19T14:03:33;38.50;;;10.05;;
17177;SDS011;8704;52.006;4.374;2023-11-19T14:06:03;41.35;;;8.90;;
17177;SDS011;8704;52.006;4.374;2023-11-19T14:08:32;45.55;;;10.15;;
17177;SDS011;8704;52.006;4.374;2023-11-19T14:11:00;41.30;;;9.63;;
17177;SDS011;8704;52.006;4.374;2023-11-19T14:13:28;41.28;;;10.35;;
17177;SDS011;8704;52.006;4.374;2023-11-19T14:15:56;35.33;;;9.48;;
17177;SDS011;8704;52.006;4.374;2023-11-19T14:18:24;34.00;;;9.05;;
17177;SDS011;8704;52.006;4.374;2023-11-19T14:20:52;41.60;;;10.18;;
17177;SDS011;8704;52.006;4.374;2023-11-19T14:23:21;33.72;;;9.57;;
17177;SDS011;8704;52.006;4.374;2023-11-19T14:25:50;43.22;;;9.85;;
17177;SDS011;8704;52.006;4.374;2023-11-19T14:28:18;39.97;;;9.40;;
17177;SDS011;8704;52.006;4.374;2023-11-19T14:30:46;42.28;;;9.07;;
17177;SDS011;8704;52.006;4.374;2023-11-19T14:33:20;34.20;;;8.93;;
17177;SDS011;8704;52.006;4.374;2023-11-19T14:35:48;31.85;;;8.50;;
17177;SDS011;8704;52.006;4.374;2023-11-19T14:38:16;30.30;;;7.10;;
17177;SDS011;8704;52.006;4.374;2023-11-19T14:40:45;36.70;;;9.23;;
17177;SDS011;8704;52.006;4.374;2023-11-19T14:43:14;40.60;;;8.95;;
17177;SDS011;8704;52.006;4.374;2023-11-19T14:45:42;32.17;;;8.88;;
17177;SDS011;8704;52.006;4.374;2023-11-19T14:48:15;40.88;;;9.20;;
17177;SDS011;8704;52.006;4.374;2023-11-19T14:50:44;37.22;;;8.43;;
17177;SDS011;8704;52.006;4.374;2023-11-19T14:53:13;35.92;;;8.07;;
17177;SDS011;8704;52.006;4.374;2023-11-19T14:55:41;36.65;;;9.27;;
17177;SDS011;8704;52.006;4.374;2023-11-19T14:58:11;40.58;;;9.50;;
17177;SDS011;8704;52.006;4.374;2023-11-19T15:00:42;30.77;;;9.18;;
17177;SDS011;8704;52.006;4.374;2023-11-19T15:03:11;44.67;;;10.75;;
17177;SDS011;8704;52.006;4.374;2023-11-19T15:05:40;37.92;;;9.90;;
17177;SDS011;8704;52.006;4.374;2023-11-19T15:08:08;41.50;;;10.52;;
17177;SDS011;8704;52.006;4.374;2023-11-19T15:10:36;37.80;;;10.13;;